TimeMST,TemperatureF,Dew PointF,Humidity,Sea Level PressureIn,VisibilityMPH,Wind Direction,Wind SpeedMPH,Gust SpeedMPH,PrecipitationIn,Events,Conditions,WindDirDegrees,DateUTC
12:52 AM,28.4,10.4,47,30.17,10.0,Variable,3.5,-,N/A,,Clear,0,2013-02-13 07:52:00
1:52 AM,27.0,10.0,49,30.20,10.0,Variable,3.5,-,N/A,,Clear,0,2013-02-13 08:52:00
2:52 AM,26.1,9.0,49,30.19,10.0,NW,4.6,-,N/A,,Clear,320,2013-02-13 09:52:00
3:52 AM,27.0,10.0,49,30.19,10.0,NNW,6.9,-,N/A,,Clear,340,2013-02-13 10:52:00
4:52 AM,23.0,9.0,55,30.19,10.0,Calm,Calm,-,N/A,,Clear,0,2013-02-13 11:52:00
5:52 AM,19.9,8.1,60,30.22,10.0,SSE,3.5,-,N/A,,Clear,160,2013-02-13 12:52:00
6:52 AM,21.9,8.1,55,30.23,10.0,Calm,Calm,-,N/A,,Clear,0,2013-02-13 13:52:00
7:52 AM,27.0,9.0,47,30.22,10.0,North,4.6,-,N/A,,Clear,360,2013-02-13 14:52:00
8:52 AM,30.9,10.0,42,30.22,10.0,North,10.4,-,N/A,,Clear,360,2013-02-13 15:52:00
9:52 AM,34.0,10.9,38,30.21,10.0,NNW,10.4,-,N/A,,Clear,340,2013-02-13 16:52:00
10:52 AM,37.0,9.0,31,30.18,10.0,North,12.7,-,N/A,,Clear,350,2013-02-13 17:52:00
11:52 AM,41.0,9.0,27,30.14,10.0,NNW,9.2,-,N/A,,Clear,340,2013-02-13 18:52:00
12:52 PM,44.1,10.0,25,30.10,10.0,NW,18.4,23.0,N/A,,Clear,310,2013-02-13 19:52:00
1:52 PM,46.9,10.9,23,30.07,10.0,NNW,15.0,-,N/A,,Partly Cloudy,340,2013-02-13 20:52:00
2:52 PM,48.0,10.9,22,30.05,10.0,NNW,17.3,20.7,N/A,,Partly Cloudy,340,2013-02-13 21:52:00
3:52 PM,48.0,12.0,24,30.04,10.0,NNW,16.1,21.9,N/A,,Partly Cloudy,340,2013-02-13 22:52:00
4:52 PM,46.9,12.0,24,30.06,10.0,NNW,18.4,26.5,N/A,,Partly Cloudy,340,2013-02-13 23:52:00
5:52 PM,44.1,12.0,27,30.09,10.0,NNW,19.6,23.0,N/A,,Partly Cloudy,340,2013-02-14 00:52:00
6:52 PM,42.1,14.0,32,30.13,10.0,North,12.7,23.0,N/A,,Partly Cloudy,350,2013-02-14 01:52:00
7:52 PM,39.9,14.0,35,30.14,10.0,North,13.8,-,N/A,,Clear,10,2013-02-14 02:52:00
8:52 PM,39.0,17.1,41,30.14,10.0,North,17.3,-,N/A,,Clear,350,2013-02-14 03:52:00
9:52 PM,37.9,16.0,41,30.12,10.0,North,11.5,-,N/A,,Clear,10,2013-02-14 04:52:00
10:52 PM,37.0,16.0,42,30.13,10.0,North,10.4,-,N/A,,Clear,350,2013-02-14 05:52:00
11:52 PM,37.0,16.0,42,30.12,10.0,North,9.2,-,N/A,,Clear,350,2013-02-14 06:52:00